sensor_id;sensor_type;location;lat;lon;timestamp;pressure;altitude;pressure_sealevel;temperature;humidity
63907;BME280;50075;49.484;11.238;2022-07-04T00:01:58;97974.50;;;19.70;100.00
63907;BME280;50075;49.484;11.238;2022-07-04T00:04:23;97970.78;;;19.83;100.00
63907;BME280;50075;49.484;11.238;2022-07-04T00:06:49;97975.09;;;19.84;100.00
63907;BME280;50075;49.484;11.238;2022-07-04T00:09:14;97982.56;;;19.91;100.00
63907;BME280;50075;49.484;11.238;2022-07-04T00:11:39;97980.88;;;19.90;100.00
63907;BME280;50075;49.484;11.238;2022-07-04T00:14:05;97977.75;;;19.84;100.00
63907;BME280;50075;49.484;11.238;2022-07-04T00:16:30;97987.00;;;19.90;100.00
63907;BME280;50075;49.484;11.238;2022-07-04T00:18:56;97986.47;;;20.30;100.00
63907;BME280;50075;49.484;11.238;2022-07-04T00:21:21;97990.38;;;19.92;100.00
63907;BME280;50075;49.484;11.238;2022-07-04T00:23:46;97994.81;;;19.69;100.00
63907;BME280;50075;49.484;11.238;2022-07-04T00:26:12;97991.09;;;19.83;100.00
63907;BME280;50075;49.484;11.238;2022-07-04T00:28:37;97992.19;;;19.80;100.00
63907;BME280;50075;49.484;11.238;2022-07-04T00:31:02;97987.38;;;19.63;100.00
63907;BME280;50075;49.484;11.238;2022-07-04T00:33:28;97983.97;;;19.50;100.00
63907;BME280;50075;49.484;11.238;2022-07-04T00:35:53;97984.97;;;19.49;100.00
63907;BME280;50075;49.484;11.238;2022-07-04T00:38:19;97989.53;;;19.47;100.00
63907;BME280;50075;49.484;11.238;2022-07-04T00:40:44;97994.81;;;19.69;100.00
63907;BME280;50075;49.484;11.238;2022-07-04T00:43:09;98000.38;;;20.00;100.00
63907;BME280;50075;49.484;11.238;2022-07-04T00:45:35;98000.94;;;19.70;100.00
63907;BME280;50075;49.484;11.238;2022-07-04T00:48:00;98000.97;;;19.92;100.00
63907;BME280;50075;49.484;11.238;2022-07-04T00:50:26;97993.13;;;20.13;100.00
63907;BME280;50075;49.484;11.238;2022-07-04T00:52:52;97987.72;;;19.92;100.00
63907;BME280;50075;49.484;11.238;2022-07-04T00:55:18;97986.91;;;19.80;100.00
63907;BME280;50075;49.484;11.238;2022-07-04T00:57:45;97974.06;;;20.31;100.00
63907;BME280;50075;49.484;11.238;2022-07-04T01:00:10;97979.28;;;19.53;100.00
63907;BME280;50075;49.484;11.238;2022-07-04T01:02:36;97983.53;;;18.98;100.00
63907;BME280;50075;49.484;11.238;2022-07-04T01:05:01;97983.63;;;18.85;100.00
63907;BME280;50075;49.484;11.238;2022-07-04T01:07:27;97997.38;;;19.01;100.00
63907;BME280;50075;49.484;11.238;2022-07-04T01:09:53;97991.19;;;19.25;100.00
63907;BME280;50075;49.484;11.238;2022-07-04T01:12:26;97990.00;;;18.82;100.00
63907;BME280;50075;49.484;11.238;2022-07-04T01:14:51;97987.00;;;18.39;100.00
63907;BME280;50075;49.484;11.238;2022-07-04T01:17:17;97988.63;;;18.77;100.00
63907;BME280;50075;49.484;11.238;2022-07-04T01:19:42;97991.50;;;18.49;100.00
63907;BME280;50075;49.484;11.238;2022-07-04T01:22:08;97992.50;;;18.36;100.00
63907;BME280;50075;49.484;11.238;2022-07-04T01:24:33;97993.47;;;18.35;100.00
63907;BME280;50075;49.484;11.238;2022-07-04T01:26:59;97990.84;;;18.35;100.00
63907;BME280;50075;49.484;11.238;2022-07-04T01:29:24;97981.94;;;18.36;100.00
63907;BME280;50075;49.484;11.238;2022-07-04T01:31:49;97992.09;;;18.05;100.00
63907;BME280;50075;49.484;11.238;2022-07-04T01:34:15;97988.50;;;18.06;100.00
63907;BME280;50075;49.484;11.238;2022-07-04T01:36:40;97991.94;;;18.67;100.00
63907;BME280;50075;49.484;11.238;2022-07-04T01:39:05;97997.13;;;18.08;100.00
63907;BME280;50075;49.484;11.238;2022-07-04T01:41:34;98000.66;;;18.33;100.00
63907;BME280;50075;49.484;11.238;2022-07-04T01:44:00;98003.06;;;17.99;100.00
63907;BME280;50075;49.484;11.238;2022-07-04T01:46:25;97991.56;;;18.37;100.00
63907;BME280;50075;49.484;11.238;2022-07-04T01:48:51;97998.81;;;18.46;100.00
63907;BME280;50075;49.484;11.238;2022-07-04T01:51:16;97995.38;;;19.27;100.00
63907;BME280;50075;49.484;11.238;2022-07-04T01:53:41;97989.56;;;18.76;100.00
63907;BME280;50075;49.484;11.238;2022-07-04T01:56:07;97998.31;;;18.04;100.00
63907;BME280;50075;49.484;11.238;2022-07-04T01:58:32;98003.53;;;18.29;100.00
63907;BME280;50075;49.484;11.238;2022-07-04T02:00:58;97987.78;;;17.78;100.00
63907;BME280;50075;49.484;11.238;2022-07-04T02:03:42;97988.63;;;17.79;100.00
63907;BME280;50075;49.484;11.238;2022-07-04T02:06:07;97987.56;;;18.07;100.00
63907;BME280;50075;49.484;11.238;2022-07-04T02:08:33;97984.81;;;17.96;100.00
63907;BME280;50075;49.484;11.238;2022-07-04T02:11:17;98000.66;;;18.33;100.00
63907;BME280;50075;49.484;11.238;2022-07-04T02:13:42;97989.13;;;18.34;100.00
63907;BME280;50075;49.484;11.238;2022-07-04T02:16:07;97991.78;;;17.97;100.00
63907;BME280;50075;49.484;11.238;2022-07-04T02:18:33;97994.81;;;18.16;100.00
63907;BME280;50075;49.484;11.238;2022-07-04T02:20:58;97990.81;;;18.83;100.00
63907;BME280;50075;49.484;11.238;2022-07-04T02:23:24;98001.81;;;18.28;100.00
63907;BME280;50075;49.484;11.238;2022-07-04T02:25:49;97994.53;;;18.80;100.00
63907;BME280;50075;49.484;11.238;2022-07-04T02:28:15;97992.69;;;18.45;100.00
63907;BME280;50075;49.484;11.238;2022-07-04T02:30:40;98001.06;;;18.02;100.00
63907;BME280;50075;49.484;11.238;2022-07-04T02:33:05;98012.81;;;17.85;100.00
63907;BME280;50075;49.484;11.238;2022-07-04T02:35:31;98006.56;;;17.99;100.00
63907;BME280;50075;49.484;11.238;2022-07-04T02:37:56;98006.28;;;17.65;100.00
63907;BME280;50075;49.484;11.238;2022-07-04T02:40:21;98009.00;;;17.77;100.00
63907;BME280;50075;49.484;11.238;2022-07-04T02:42:47;98015.34;;;18.00;100.00
63907;BME280;50075;49.484;11.238;2022-07-04T02:45:12;98014.88;;;18.06;100.00
63907;BME280;50075;49.484;11.238;2022-07-04T02:47:38;98013.91;;;18.68;100.00
63907;BME280;50075;49.484;11.238;2022-07-04T02:50:03;98013.06;;;18.43;100.00
63907;BME280;50075;49.484;11.238;2022-07-04T02:52:29;98008.88;;;19.00;100.00
63907;BME280;50075;49.484;11.238;2022-07-04T02:54:55;98016.91;;;19.34;100.00
63907;BME280;50075;49.484;11.238;2022-07-04T02:57:20;98031.38;;;18.58;100.00
63907;BME280;50075;49.484;11.238;2022-07-04T02:59:46;98032.84;;;17.75;100.00
63907;BME280;50075;49.484;11.238;2022-07-04T03:02:11;98028.22;;;18.28;100.00
63907;BME280;50075;49.484;11.238;2022-07-04T03:04:37;98039.94;;;17.87;100.00
63907;BME280;50075;49.484;11.238;2022-07-04T03:07:06;98035.72;;;17.98;100.00
63907;BME280;50075;49.484;11.238;2022-07-04T03:09:32;98031.94;;;18.26;100.00
63907;BME280;50075;49.484;11.238;2022-07-04T03:11:57;98040.56;;;17.65;100.00
63907;BME280;50075;49.484;11.238;2022-07-04T03:14:22;98039.47;;;17.81;100.00
63907;BME280;50075;49.484;11.238;2022-07-04T03:16:48;98043.91;;;18.06;100.00
63907;BME280;50075;49.484;11.238;2022-07-04T03:19:13;98047.16;;;18.22;100.00
63907;BME280;50075;49.484;11.238;2022-07-04T03:21:39;98043.94;;;17.80;100.00
63907;BME280;50075;49.484;11.238;2022-07-04T03:24:04;98058.91;;;18.18;100.00
63907;BME280;50075;49.484;11.238;2022-07-04T03:26:32;98060.13;;;17.88;100.00
63907;BME280;50075;49.484;11.238;2022-07-04T03:28:58;98065.88;;;17.68;100.00
63907;BME280;50075;49.484;11.238;2022-07-04T03:31:25;98063.97;;;18.58;100.00
63907;BME280;50075;49.484;11.238;2022-07-04T03:33:51;98066.66;;;18.69;100.00
63907;BME280;50075;49.484;11.238;2022-07-04T03:36:17;98065.19;;;18.28;100.00
63907;BME280;50075;49.484;11.238;2022-07-04T03:38:43;98063.94;;;18.21;100.00
63907;BME280;50075;49.484;11.238;2022-07-04T03:41:08;98058.94;;;19.15;100.00
63907;BME280;50075;49.484;11.238;2022-07-04T03:43:34;98060.63;;;18.67;100.00
63907;BME280;50075;49.484;11.238;2022-07-04T03:45:59;98062.47;;;20.07;100.00
63907;BME280;50075;49.484;11.238;2022-07-04T03:48:25;98065.25;;;19.48;100.00
63907;BME280;50075;49.484;11.238;2022-07-04T03:50:50;98085.84;;;18.10;100.00
63907;BME280;50075;49.484;11.238;2022-07-04T03:53:15;98085.28;;;17.41;100.00
63907;BME280;50075;49.484;11.238;2022-07-04T03:55:41;98087.63;;;17.97;100.00
63907;BME280;50075;49.484;11.238;2022-07-04T03:58:07;98089.13;;;18.01;100.00
63907;BME280;50075;49.484;11.238;2022-07-04T04:00:32;98095.03;;;18.05;100.00
63907;BME280;50075;49.484;11.238;2022-07-04T04:02:58;98099.47;;;17.91;100.00
63907;BME280;50075;49.484;11.238;2022-07-04T04:05:24;98101.47;;;18.01;100.00
63907;BME280;50075;49.484;11.238;2022-07-04T04:07:56;98099.84;;;18.24;100.00
63907;BME280;50075;49.484;11.238;2022-07-04T04:10:22;98101.16;;;18.55;100.00
63907;BME280;50075;49.484;11.238;2022-07-04T04:12:48;98094.47;;;19.93;100.00
63907;BME280;50075;49.484;11.238;2022-07-04T04:15:13;98105.28;;;19.07;100.00
63907;BME280;50075;49.484;11.238;2022-07-04T04:17:38;98103.38;;;19.10;100.00
63907;BME280;50075;49.484;11.238;2022-07-04T04:20:04;98099.88;;;19.09;100.00
63907;BME280;50075;49.484;11.238;2022-07-04T04:22:30;98100.00;;;19.90;100.00
63907;BME280;50075;49.484;11.238;2022-07-04T04:24:56;98105.94;;;19.58;100.00
63907;BME280;50075;49.484;11.238;2022-07-04T04:27:22;98119.59;;;19.05;100.00
63907;BME280;50075;49.484;11.238;2022-07-04T04:29:47;98115.75;;;19.09;100.00
63907;BME280;50075;49.484;11.238;2022-07-04T04:32:12;98116.19;;;18.79;100.00
63907;BME280;50075;49.484;11.238;2022-07-04T04:34:38;98122.41;;;18.78;100.00
63907;BME280;50075;49.484;11.238;2022-07-04T04:37:03;98131.97;;;18.67;100.00
63907;BME280;50075;49.484;11.238;2022-07-04T04:39:28;98128.09;;;18.97;100.00
63907;BME280;50075;49.484;11.238;2022-07-04T04:41:54;98127.28;;;19.08;100.00
63907;BME280;50075;49.484;11.238;2022-07-04T04:44:19;98119.41;;;19.55;100.00
63907;BME280;50075;49.484;11.238;2022-07-04T04:46:45;98127.31;;;19.43;100.00
63907;BME280;50075;49.484;11.238;2022-07-04T04:49:11;98134.63;;;19.75;100.00
63907;BME280;50075;49.484;11.238;2022-07-04T04:51:36;98135.22;;;19.79;100.00
63907;BME280;50075;49.484;11.238;2022-07-04T04:54:02;98138.19;;;19.63;100.00
63907;BME280;50075;49.484;11.238;2022-07-04T04:56:27;98139.13;;;19.51;100.00
63907;BME280;50075;49.484;11.238;2022-07-04T04:58:53;98144.53;;;19.25;100.00
63907;BME280;50075;49.484;11.238;2022-07-04T05:01:18;98136.97;;;19.56;100.00
63907;BME280;50075;49.484;11.238;2022-07-04T05:03:43;98132.13;;;20.30;100.00
63907;BME280;50075;49.484;11.238;2022-07-04T05:06:09;98145.00;;;19.90;100.00
63907;BME280;50075;49.484;11.238;2022-07-04T05:08:34;98147.63;;;19.78;100.00
63907;BME280;50075;49.484;11.238;2022-07-04T05:11:00;98149.69;;;20.09;100.00
63907;BME280;50075;49.484;11.238;2022-07-04T05:13:25;98151.88;;;20.49;100.00
63907;BME280;50075;49.484;11.238;2022-07-04T05:15:50;98162.59;;;20.02;100.00
63907;BME280;50075;49.484;11.238;2022-07-04T05:18:16;98165.25;;;20.02;100.00
63907;BME280;50075;49.484;11.238;2022-07-04T05:20:41;98157.03;;;19.94;100.00
63907;BME280;50075;49.484;11.238;2022-07-04T05:23:07;98151.28;;;20.22;100.00
63907;BME280;50075;49.484;11.238;2022-07-04T05:25:32;98143.72;;;20.29;100.00
63907;BME280;50075;49.484;11.238;2022-07-04T05:27:58;98141.38;;;20.58;100.00
63907;BME280;50075;49.484;11.238;2022-07-04T05:30:24;98144.06;;;20.36;100.00
63907;BME280;50075;49.484;11.238;2022-07-04T05:32:49;98146.72;;;20.36;100.00
63907;BME280;50075;49.484;11.238;2022-07-04T05:35:15;98142.59;;;20.54;100.00
63907;BME280;50075;49.484;11.238;2022-07-04T05:37:40;98141.66;;;20.55;100.00
63907;BME280;50075;49.484;11.238;2022-07-04T05:40:06;98141.63;;;20.78;100.00
63907;BME280;50075;49.484;11.238;2022-07-04T05:42:34;98149.47;;;20.79;100.00
63907;BME280;50075;49.484;11.238;2022-07-04T05:44:59;98152.28;;;21.10;100.00
63907;BME280;50075;49.484;11.238;2022-07-04T05:47:24;98147.13;;;21.62;100.00
63907;BME280;50075;49.484;11.238;2022-07-04T05:49:51;98153.88;;;21.66;100.00
63907;BME280;50075;49.484;11.238;2022-07-04T05:52:17;98153.59;;;22.11;100.00
63907;BME280;50075;49.484;11.238;2022-07-04T05:54:42;98160.59;;;21.91;100.00
63907;BME280;50075;49.484;11.238;2022-07-04T05:57:08;98152.59;;;21.82;100.00
63907;BME280;50075;49.484;11.238;2022-07-04T05:59:33;98155.25;;;22.12;100.00
63907;BME280;50075;49.484;11.238;2022-07-04T06:01:59;98155.28;;;21.91;100.00
63907;BME280;50075;49.484;11.238;2022-07-04T06:04:24;98158.78;;;21.38;100.00
63907;BME280;50075;49.484;11.238;2022-07-04T06:06:50;98163.91;;;23.26;100.00
63907;BME280;50075;49.484;11.238;2022-07-04T06:09:16;98163.00;;;22.97;100.00
63907;BME280;50075;49.484;11.238;2022-07-04T06:11:41;98164.31;;;23.71;100.00
63907;BME280;50075;49.484;11.238;2022-07-04T06:14:07;98162.66;;;23.31;100.00
63907;BME280;50075;49.484;11.238;2022-07-04T06:16:32;98168.34;;;24.14;100.00
63907;BME280;50075;49.484;11.238;2022-07-04T06:18:57;98167.88;;;24.18;100.00
63907;BME280;50075;49.484;11.238;2022-07-04T06:21:23;98165.88;;;25.41;93.24
63907;BME280;50075;49.484;11.238;2022-07-04T06:23:48;98161.34;;;25.42;94.58
63907;BME280;50075;49.484;11.238;2022-07-04T06:26:13;98155.22;;;26.38;84.19
63907;BME280;50075;49.484;11.238;2022-07-04T06:28:39;98162.59;;;27.78;73.12
63907;BME280;50075;49.484;11.238;2022-07-04T06:31:04;98156.75;;;27.42;72.41
63907;BME280;50075;49.484;11.238;2022-07-04T06:33:30;98160.09;;;26.77;68.80
63907;BME280;50075;49.484;11.238;2022-07-04T06:35:55;98155.09;;;25.51;81.05
63907;BME280;50075;49.484;11.238;2022-07-04T06:38:23;98152.13;;;26.93;80.03
63907;BME280;50075;49.484;11.238;2022-07-04T06:40:57;98161.06;;;26.07;86.21
63907;BME280;50075;49.484;11.238;2022-07-04T06:43:23;98162.59;;;27.78;70.23
63907;BME280;50075;49.484;11.238;2022-07-04T06:45:48;98158.41;;;27.26;68.86
63907;BME280;50075;49.484;11.238;2022-07-04T06:48:14;98154.81;;;29.20;60.65
63907;BME280;50075;49.484;11.238;2022-07-04T06:50:39;98160.44;;;29.79;55.93
63907;BME280;50075;49.484;11.238;2022-07-04T06:53:06;98155.91;;;27.74;60.55
63907;BME280;50075;49.484;11.238;2022-07-04T06:55:32;98156.97;;;28.54;58.38
63907;BME280;50075;49.484;11.238;2022-07-04T06:57:57;98144.94;;;30.49;53.43
63907;BME280;50075;49.484;11.238;2022-07-04T07:00:23;98153.41;;;29.24;52.84
63907;BME280;50075;49.484;11.238;2022-07-04T07:02:49;98151.06;;;30.43;50.79
63907;BME280;50075;49.484;11.238;2022-07-04T07:05:14;98143.63;;;29.08;52.15
63907;BME280;50075;49.484;11.238;2022-07-04T07:07:41;98152.13;;;30.64;47.87
63907;BME280;50075;49.484;11.238;2022-07-04T07:10:06;98147.84;;;29.34;50.79
63907;BME280;50075;49.484;11.238;2022-07-04T07:12:33;98150.03;;;30.44;49.69
63907;BME280;50075;49.484;11.238;2022-07-04T07:14:59;98150.97;;;30.51;49.99
63907;BME280;50075;49.484;11.238;2022-07-04T07:17:25;98151.34;;;30.48;49.18
63907;BME280;50075;49.484;11.238;2022-07-04T07:19:51;98151.75;;;31.83;45.99
63907;BME280;50075;49.484;11.238;2022-07-04T07:22:16;98146.22;;;28.93;51.01
63907;BME280;50075;49.484;11.238;2022-07-04T07:24:42;98155.88;;;28.15;52.29
63907;BME280;50075;49.484;11.238;2022-07-04T07:27:08;98149.53;;;29.50;49.20
63907;BME280;50075;49.484;11.238;2022-07-04T07:29:34;98153.38;;;28.05;54.51
63907;BME280;50075;49.484;11.238;2022-07-04T07:32:00;98159.94;;;27.37;60.30
63907;BME280;50075;49.484;11.238;2022-07-04T07:34:25;98158.56;;;26.40;63.97
63907;BME280;50075;49.484;11.238;2022-07-04T07:36:51;98153.41;;;26.81;65.72
63907;BME280;50075;49.484;11.238;2022-07-04T07:39:16;98149.22;;;27.54;62.95
63907;BME280;50075;49.484;11.238;2022-07-04T07:41:42;98157.06;;;27.72;62.65
63907;BME280;50075;49.484;11.238;2022-07-04T07:44:08;98156.84;;;27.16;66.37
63907;BME280;50075;49.484;11.238;2022-07-04T07:46:33;98155.19;;;26.64;65.05
63907;BME280;50075;49.484;11.238;2022-07-04T07:48:59;98152.34;;;26.31;67.55
63907;BME280;50075;49.484;11.238;2022-07-04T07:51:24;98155.91;;;26.40;68.79
63907;BME280;50075;49.484;11.238;2022-07-04T07:53:49;98153.16;;;26.31;66.09
63907;BME280;50075;49.484;11.238;2022-07-04T07:56:15;98156.66;;;25.80;69.28
63907;BME280;50075;49.484;11.238;2022-07-04T07:58:40;98153.97;;;26.58;67.75
63907;BME280;50075;49.484;11.238;2022-07-04T08:01:06;98155.88;;;25.87;71.87
63907;BME280;50075;49.484;11.238;2022-07-04T08:03:31;98156.59;;;27.35;68.76
63907;BME280;50075;49.484;11.238;2022-07-04T08:06:15;98146.06;;;26.14;73.88
63907;BME280;50075;49.484;11.238;2022-07-04T08:08:41;98150.53;;;27.66;68.25
63907;BME280;50075;49.484;11.238;2022-07-04T08:11:07;98159.53;;;28.22;62.51
63907;BME280;50075;49.484;11.238;2022-07-04T08:13:33;98153.06;;;29.27;58.49
63907;BME280;50075;49.484;11.238;2022-07-04T08:15:58;98150.19;;;27.77;57.63
63907;BME280;50075;49.484;11.238;2022-07-04T08:18:24;98155.25;;;27.97;58.38
63907;BME280;50075;49.484;11.238;2022-07-04T08:20:50;98142.69;;;27.64;58.60
63907;BME280;50075;49.484;11.238;2022-07-04T08:23:16;98148.56;;;27.93;61.75
63907;BME280;50075;49.484;11.238;2022-07-04T08:25:41;98144.72;;;28.51;57.98
63907;BME280;50075;49.484;11.238;2022-07-04T08:28:07;98145.44;;;28.37;59.09
63907;BME280;50075;49.484;11.238;2022-07-04T08:30:32;98146.72;;;28.97;55.67
63907;BME280;50075;49.484;11.238;2022-07-04T08:32:58;98135.97;;;28.97;53.98
63907;BME280;50075;49.484;11.238;2022-07-04T08:35:24;98140.19;;;30.51;50.37
63907;BME280;50075;49.484;11.238;2022-07-04T08:37:49;98137.63;;;29.29;50.76
63907;BME280;50075;49.484;11.238;2022-07-04T08:40:22;98141.72;;;29.63;49.93
63907;BME280;50075;49.484;11.238;2022-07-04T08:42:48;98135.63;;;30.07;52.20
63907;BME280;50075;49.484;11.238;2022-07-04T08:45:15;98141.09;;;30.29;51.52
63907;BME280;50075;49.484;11.238;2022-07-04T08:47:42;98136.00;;;30.64;48.61
63907;BME280;50075;49.484;11.238;2022-07-04T08:50:13;98127.66;;;30.59;50.82
63907;BME280;50075;49.484;11.238;2022-07-04T08:52:42;98127.34;;;29.56;51.78
63907;BME280;50075;49.484;11.238;2022-07-04T08:55:12;98121.63;;;31.73;47.41
63907;BME280;50075;49.484;11.238;2022-07-04T08:57:57;98119.59;;;30.95;46.31
63907;BME280;50075;49.484;11.238;2022-07-04T09:00:41;98122.16;;;32.18;44.60
63907;BME280;50075;49.484;11.238;2022-07-04T09:03:08;98115.22;;;31.09;46.86
63907;BME280;50075;49.484;11.238;2022-07-04T09:05:34;98117.44;;;30.09;49.73
63907;BME280;50075;49.484;11.238;2022-07-04T09:08:00;98115.69;;;29.40;52.43
63907;BME280;50075;49.484;11.238;2022-07-04T09:10:26;98113.34;;;29.84;49.47
63907;BME280;50075;49.484;11.238;2022-07-04T09:12:52;98113.47;;;30.50;48.40
63907;BME280;50075;49.484;11.238;2022-07-04T09:15:18;98107.44;;;30.99;46.80
63907;BME280;50075;49.484;11.238;2022-07-04T09:17:44;98112.84;;;30.69;47.63
63907;BME280;50075;49.484;11.238;2022-07-04T09:20:21;98119.84;;;30.19;48.36
63907;BME280;50075;49.484;11.238;2022-07-04T09:22:48;98114.53;;;29.81;50.36
63907;BME280;50075;49.484;11.238;2022-07-04T09:25:14;98111.34;;;30.97;48.19
63907;BME280;50075;49.484;11.238;2022-07-04T09:27:42;98120.03;;;32.06;46.19
63907;BME280;50075;49.484;11.238;2022-07-04T09:30:10;98125.72;;;32.60;46.38
63907;BME280;50075;49.484;11.238;2022-07-04T09:32:47;98122.00;;;30.53;47.84
63907;BME280;50075;49.484;11.238;2022-07-04T09:37:44;98133.47;;;29.88;50.91
63907;BME280;50075;49.484;11.238;2022-07-04T09:40:29;98133.25;;;29.74;52.20
63907;BME280;50075;49.484;11.238;2022-07-04T09:43:00;98138.22;;;30.30;50.22
63907;BME280;50075;49.484;11.238;2022-07-04T09:45:27;98139.88;;;30.76;49.08
63907;BME280;50075;49.484;11.238;2022-07-04T09:47:57;98132.72;;;29.94;51.32
63907;BME280;50075;49.484;11.238;2022-07-04T09:50:26;98130.09;;;29.48;51.68
63907;BME280;50075;49.484;11.238;2022-07-04T09:55:29;98128.81;;;29.12;50.21
63907;BME280;50075;49.484;11.238;2022-07-04T09:57:57;98132.53;;;29.34;50.30
63907;BME280;50075;49.484;11.238;2022-07-04T10:00:24;98131.88;;;30.83;49.40
63907;BME280;50075;49.484;11.238;2022-07-04T10:02:50;98137.72;;;31.01;47.77
63907;BME280;50075;49.484;11.238;2022-07-04T10:05:20;98146.41;;;30.37;48.70
63907;BME280;50075;49.484;11.238;2022-07-04T10:07:46;98148.28;;;29.84;47.75
63907;BME280;50075;49.484;11.238;2022-07-04T10:10:29;98141.91;;;29.99;48.22
63907;BME280;50075;49.484;11.238;2022-07-04T10:13:02;98144.16;;;29.73;49.32
63907;BME280;50075;49.484;11.238;2022-07-04T10:15:27;98148.72;;;30.40;49.31
63907;BME280;50075;49.484;11.238;2022-07-04T10:17:53;98144.91;;;30.64;48.82
63907;BME280;50075;49.484;11.238;2022-07-04T10:20:18;98153.25;;;30.54;49.45
63907;BME280;50075;49.484;11.238;2022-07-04T10:22:44;98145.50;;;29.92;48.54
63907;BME280;50075;49.484;11.238;2022-07-04T10:25:09;98146.09;;;30.02;49.80
63907;BME280;50075;49.484;11.238;2022-07-04T10:27:37;98150.44;;;29.65;49.64
63907;BME280;50075;49.484;11.238;2022-07-04T10:30:05;98152.56;;;31.55;48.37
63907;BME280;50075;49.484;11.238;2022-07-04T10:32:32;98153.38;;;31.12;47.44
63907;BME280;50075;49.484;11.238;2022-07-04T10:34:58;98145.72;;;30.94;48.08
63907;BME280;50075;49.484;11.238;2022-07-04T10:37:24;98156.03;;;30.02;48.36
63907;BME280;50075;49.484;11.238;2022-07-04T10:39:49;98147.75;;;30.92;46.50
63907;BME280;50075;49.484;11.238;2022-07-04T10:42:25;98155.47;;;31.17;47.32
63907;BME280;50075;49.484;11.238;2022-07-04T10:44:54;98152.81;;;30.36;46.44
63907;BME280;50075;49.484;11.238;2022-07-04T10:47:25;98152.59;;;30.23;46.93
63907;BME280;50075;49.484;11.238;2022-07-04T10:49:55;98146.41;;;30.37;46.63
63907;BME280;50075;49.484;11.238;2022-07-04T10:52:20;98154.03;;;30.48;45.60
63907;BME280;50075;49.484;11.238;2022-07-04T10:54:46;98150.19;;;29.98;45.42
63907;BME280;50075;49.484;11.238;2022-07-04T10:59:40;98155.88;;;30.33;47.33
63907;BME280;50075;49.484;11.238;2022-07-04T11:07:15;98150.47;;;30.63;46.00
63907;BME280;50075;49.484;11.238;2022-07-04T11:09:41;98151.34;;;30.48;47.24
63907;BME280;50075;49.484;11.238;2022-07-04T11:12:08;98149.44;;;30.64;46.58
63907;BME280;50075;49.484;11.238;2022-07-04T11:17:06;98153.91;;;30.71;44.05
63907;BME280;50075;49.484;11.238;2022-07-04T11:19:32;98155.28;;;32.33;42.76
63907;BME280;50075;49.484;11.238;2022-07-04T11:21:58;98149.00;;;32.26;40.61
63907;BME280;50075;49.484;11.238;2022-07-04T11:24:24;98144.28;;;32.76;41.67
63907;BME280;50075;49.484;11.238;2022-07-04T11:26:50;98144.94;;;32.43;39.43
63907;BME280;50075;49.484;11.238;2022-07-04T11:29:16;98127.22;;;32.34;38.74
63907;BME280;50075;49.484;11.238;2022-07-04T11:31:47;98126.56;;;32.25;40.47
63907;BME280;50075;49.484;11.238;2022-07-04T11:34:13;98127.72;;;32.44;41.35
63907;BME280;50075;49.484;11.238;2022-07-04T11:36:41;98112.59;;;32.57;39.83
63907;BME280;50075;49.484;11.238;2022-07-04T11:39:08;98108.69;;;31.96;39.92
63907;BME280;50075;49.484;11.238;2022-07-04T11:41:38;98113.53;;;31.29;41.05
63907;BME280;50075;49.484;11.238;2022-07-04T11:44:24;98112.66;;;31.65;41.12
63907;BME280;50075;49.484;11.238;2022-07-04T11:47:14;98109.66;;;30.59;41.88
63907;BME280;50075;49.484;11.238;2022-07-04T11:49:51;98112.09;;;30.90;42.53
63907;BME280;50075;49.484;11.238;2022-07-04T11:52:28;98109.03;;;31.15;42.65
63907;BME280;50075;49.484;11.238;2022-07-04T11:54:54;98102.59;;;29.98;42.08
63907;BME280;50075;49.484;11.238;2022-07-04T11:57:28;98110.50;;;30.96;43.07
63907;BME280;50075;49.484;11.238;2022-07-04T12:02:20;98105.72;;;31.13;42.85
63907;BME280;50075;49.484;11.238;2022-07-04T12:04:46;98099.81;;;31.03;43.31
63907;BME280;50075;49.484;11.238;2022-07-04T12:07:17;98091.97;;;31.08;43.27
63907;BME280;50075;49.484;11.238;2022-07-04T12:09:44;98093.66;;;31.52;43.11
63907;BME280;50075;49.484;11.238;2022-07-04T12:12:11;98094.94;;;31.56;42.96
63907;BME280;50075;49.484;11.238;2022-07-04T12:14:37;98093.13;;;30.99;43.39
63907;BME280;50075;49.484;11.238;2022-07-04T12:19:38;98089.16;;;31.59;41.96
63907;BME280;50075;49.484;11.238;2022-07-04T12:22:03;98090.63;;;30.61;44.53
63907;BME280;50075;49.484;11.238;2022-07-04T12:24:42;98088.75;;;31.41;43.09
63907;BME280;50075;49.484;11.238;2022-07-04T12:27:16;98089.03;;;31.03;43.63
63907;BME280;50075;49.484;11.238;2022-07-04T12:29:49;98093.69;;;29.98;43.78
63907;BME280;50075;49.484;11.238;2022-07-04T12:32:16;98077.28;;;29.93;43.17
63907;BME280;50075;49.484;11.238;2022-07-04T12:34:41;98079.84;;;30.31;43.96
63907;BME280;50075;49.484;11.238;2022-07-04T12:37:11;98075.22;;;30.54;44.30
63907;BME280;50075;49.484;11.238;2022-07-04T12:39:39;98074.34;;;31.05;42.92
63907;BME280;50075;49.484;11.238;2022-07-04T12:42:18;98077.63;;;30.64;44.62
63907;BME280;50075;49.484;11.238;2022-07-04T12:44:46;98064.03;;;31.30;43.67
63907;BME280;50075;49.484;11.238;2022-07-04T12:47:14;98059.50;;;30.58;44.49
63907;BME280;50075;49.484;11.238;2022-07-04T12:49:44;98051.28;;;30.81;43.09
63907;BME280;50075;49.484;11.238;2022-07-04T12:52:13;98049.28;;;30.68;44.23
63907;BME280;50075;49.484;11.238;2022-07-04T12:54:40;98042.16;;;30.82;43.49
63907;BME280;50075;49.484;11.238;2022-07-04T12:59:31;98042.16;;;29.94;45.00
63907;BME280;50075;49.484;11.238;2022-07-04T13:01:56;98037.56;;;30.25;44.48
63907;BME280;50075;49.484;11.238;2022-07-04T13:04:21;98035.28;;;30.58;44.04
63907;BME280;50075;49.484;11.238;2022-07-04T13:06:47;98026.16;;;29.48;44.07